CheckWX is a tool to help pilots better visualize weather data.  It is not intended as a substitute for an official pre-flight weather briefing.

07:27:26 UTC

UAOO TAF
Kzyl-Orda Southwest Airport
Kzyl-Orda, Kazakhstan
TAF UAOO 200500Z 2006/2015 03006MPS CAVOK TEMPO 2006/2012 VRB01MPS

Aug-20@
06:00 UTC

Aug-20 @ 06:00 UTC

Aug-20@
15:00 UTC

Aug-20 @ 15:00 UTC

TAF UAOO 200500Z 2006/2015 03006MPS CAVOK
Wind
  • 030° at 12 KTS
Conditions
No significant weather
Cloud Levels
  • No significant clouds

Aug-20@
06:00 UTC

Aug-20 @ 06:00 UTC

Aug-20@
12:00 UTC

Aug-20 @ 12:00 UTC

TEMPO 2006/2012 VRB01MPS

Temporary

Temporary Changes expected for less than half the time period

Wind
  • Variable at 2 KTS